Time;durP1;ratioP1;P1;durP2;ratioP2;P2;SDS_P1;SDS_P2;PMS_P1;PMS_P2;Temp;Humidity;BMP_temperature;BMP_pressure;BME280_temperature;BME280_humidity;BME280_pressure;Samples;Min_cycle;Max_cycle;Signal;HPM_P1;HPM_P2
2021/01/03 00:02:07;;;;;;;31.83;21.90;;;6.80;99.90;;;;;;6277060;28;20481;-59
2021/01/03 00:05:11;;;;;;;29.53;20.53;;;6.80;99.90;;;;;;6277175;28;20470;-59
2021/01/03 00:08:13;;;;;;;26.50;20.20;;;6.80;99.90;;;;;;6277183;28;20482;-59
2021/01/03 00:11:15;;;;;;;26.73;19.40;;;6.80;99.90;;;;;;6276799;28;20812;-59
2021/01/03 00:14:19;;;;;;;29.20;20.13;;;6.80;99.90;;;;;;6276477;28;20828;-59
2021/01/03 00:17:22;;;;;;;29.23;19.40;;;6.80;99.90;;;;;;6274996;28;20470;-60
2021/01/03 00:20:30;;;;;;;29.40;22.70;;;6.80;99.90;;;;;;6273807;28;20851;-60
2021/01/03 00:23:32;;;;;;;34.87;22.73;;;6.70;99.90;;;;;;6272217;28;20466;-59
2021/01/03 00:26:36;;;;;;;34.97;22.83;;;6.70;99.90;;;;;;6275806;28;20470;-59
2021/01/03 00:29:39;;;;;;;37.70;24.73;;;6.80;99.90;;;;;;6276068;28;20474;-59
2021/01/03 00:32:43;;;;;;;31.63;21.33;;;6.80;99.90;;;;;;6276525;28;20982;-59
2021/01/03 00:35:46;;;;;;;35.07;21.67;;;6.80;99.90;;;;;;6275801;28;20482;-59
2021/01/03 00:38:48;;;;;;;32.20;21.83;;;6.80;99.90;;;;;;6275666;28;20473;-59
2021/01/03 00:41:51;;;;;;;27.00;20.27;;;6.90;99.90;;;;;;6275495;28;20939;-59
2021/01/03 00:45:10;;;;;;;35.70;22.83;;;6.90;99.90;;;;;;6273601;28;20467;-59
2021/01/03 00:48:12;;;;;;;36.23;23.30;;;6.90;99.90;;;;;;6275728;28;20466;-58
2021/01/03 00:51:17;;;;;;;32.50;22.70;;;6.90;99.90;;;;;;6275613;28;20489;-60
2021/01/03 00:54:19;;;;;;;32.97;20.57;;;7.00;99.90;;;;;;6275048;28;20481;-59
2021/01/03 00:57:21;;;;;;;32.67;20.77;;;6.90;99.90;;;;;;6275894;28;20981;-59
2021/01/03 01:00:29;;;;;;;32.97;21.83;;;6.90;99.90;;;;;;6276068;28;20481;-59
2021/01/03 01:03:31;;;;;;;36.00;22.97;;;6.90;99.90;;;;;;6266396;28;20819;-60
2021/01/03 01:06:34;;;;;;;36.30;21.83;;;6.90;99.90;;;;;;6275904;28;20567;-60
2021/01/03 01:09:36;;;;;;;35.00;22.00;;;6.90;99.90;;;;;;6275494;28;20488;-60
2021/01/03 01:12:39;;;;;;;38.27;22.80;;;6.90;99.90;;;;;;6274822;28;20486;-60
2021/01/03 01:15:42;;;;;;;32.50;20.87;;;6.90;99.90;;;;;;6275485;28;20559;-60
2021/01/03 01:18:47;;;;;;;34.90;21.77;;;6.90;99.90;;;;;;6275481;28;20466;-59
2021/01/03 01:21:49;;;;;;;35.27;21.93;;;6.90;99.90;;;;;;6275454;28;20475;-60
2021/01/03 01:24:51;;;;;;;30.80;19.80;;;6.90;99.90;;;;;;6275343;28;20981;-59
2021/01/03 01:27:54;;;;;;;38.00;22.47;;;6.90;99.90;;;;;;6275100;28;20474;-60
2021/01/03 01:30:58;;;;;;;32.83;21.30;;;7.00;99.90;;;;;;6275087;28;20496;-59
2021/01/03 01:34:01;;;;;;;28.30;20.07;;;7.00;99.90;;;;;;6274978;28;20812;-59
2021/01/03 01:37:04;;;;;;;34.17;20.67;;;7.00;99.90;;;;;;6275134;28;20812;-59
2021/01/03 01:40:10;;;;;;;35.87;20.20;;;7.00;99.90;;;;;;6274908;28;20470;-60
2021/01/03 01:43:15;;;;;;;27.30;19.07;;;7.00;99.90;;;;;;6275040;28;20975;-60
2021/01/03 01:46:27;;;;;;;33.10;20.97;;;7.00;99.90;;;;;;6275978;28;20435;-60
2021/01/03 01:49:30;;;;;;;35.43;20.03;;;7.00;99.90;;;;;;6274634;28;20419;-60
2021/01/03 01:52:37;;;;;;;34.40;21.40;;;7.00;99.90;;;;;;6274892;28;20485;-60
2021/01/03 01:55:44;;;;;;;35.40;23.00;;;6.90;99.90;;;;;;6274900;28;20951;-59
2021/01/03 01:58:50;;;;;;;33.53;20.90;;;6.80;99.90;;;;;;6274763;28;20462;-60
2021/01/03 02:02:02;;;;;;;39.17;23.20;;;6.90;99.90;;;;;;6274977;28;20474;-59
2021/01/03 02:05:13;;;;;;;32.80;20.47;;;6.90;99.90;;;;;;6275065;28;20481;-60
2021/01/03 02:08:27;;;;;;;27.97;18.57;;;6.80;99.90;;;;;;6275079;28;20467;-59
2021/01/03 02:11:31;;;;;;;31.93;19.37;;;6.70;99.90;;;;;;6274624;28;20974;-59
2021/01/03 02:14:33;;;;;;;31.13;19.80;;;6.80;99.90;;;;;;6274397;28;20470;-59
2021/01/03 02:17:36;;;;;;;25.50;19.03;;;6.80;99.90;;;;;;6275097;28;20470;-59
2021/01/03 02:20:48;;;;;;;31.60;19.27;;;6.80;99.90;;;;;;6275077;28;20470;-59
2021/01/03 02:23:58;;;;;;;28.13;18.80;;;6.90;99.90;;;;;;6274886;28;20502;-59
2021/01/03 02:27:08;;;;;;;28.87;18.83;;;6.80;99.90;;;;;;6279665;28;20799;-60
2021/01/03 02:30:11;;;;;;;26.80;20.90;;;6.80;99.90;;;;;;6280124;28;20544;-59
2021/01/03 02:33:19;;;;;;;30.57;18.97;;;6.80;99.90;;;;;;6279969;28;20478;-63
2021/01/03 02:36:27;;;;;;;24.23;17.90;;;6.70;99.90;;;;;;6279387;28;20466;-62
2021/01/03 02:39:36;;;;;;;26.53;17.40;;;6.70;99.90;;;;;;6280112;28;20463;-62
2021/01/03 02:42:41;;;;;;;27.10;16.53;;;6.80;99.90;;;;;;6279401;28;20950;-63
2021/01/03 02:45:44;;;;;;;23.53;17.10;;;6.80;99.90;;;;;;6279221;28;20597;-62
2021/01/03 02:48:49;;;;;;;24.70;17.50;;;6.70;99.90;;;;;;6279241;28;20470;-62
2021/01/03 02:51:51;;;;;;;26.03;17.33;;;6.70;99.90;;;;;;6278805;28;20567;-63
2021/01/03 02:54:53;;;;;;;27.50;17.90;;;6.70;99.90;;;;;;6279029;28;20470;-63
2021/01/03 02:57:56;;;;;;;26.80;17.07;;;6.60;99.90;;;;;;6278646;28;20488;-63
2021/01/03 03:00:59;;;;;;;23.10;15.77;;;6.50;99.90;;;;;;6278701;28;20474;-63
2021/01/03 03:04:01;;;;;;;22.90;16.47;;;6.60;99.90;;;;;;6278678;28;20470;-62
2021/01/03 03:07:04;;;;;;;25.17;16.30;;;6.60;99.90;;;;;;6278608;28;20481;-62
2021/01/03 03:10:07;;;;;;;20.93;15.20;;;6.60;99.90;;;;;;6278827;28;20984;-62
2021/01/03 03:13:10;;;;;;;23.47;15.13;;;6.60;99.90;;;;;;6273581;28;20486;-62
2021/01/03 03:16:16;;;;;;;20.17;15.87;;;6.60;99.90;;;;;;6278652;28;20490;-62
2021/01/03 03:19:18;;;;;;;22.57;15.10;;;6.60;99.90;;;;;;6278759;28;20438;-63
2021/01/03 03:22:21;;;;;;;18.93;14.00;;;6.50;99.90;;;;;;6278308;28;20451;-62
2021/01/03 03:25:23;;;;;;;16.17;13.57;;;6.60;99.90;;;;;;6277240;28;20430;-62
2021/01/03 03:28:26;;;;;;;20.33;15.40;;;6.60;99.90;;;;;;6278337;28;20434;-62
2021/01/03 03:31:29;;;;;;;20.23;14.70;;;6.60;99.90;;;;;;6278359;28;20458;-62
2021/01/03 03:34:32;;;;;;;16.80;13.90;;;6.70;99.90;;;;;;6278182;28;20473;-63
2021/01/03 03:37:34;;;;;;;19.67;14.90;;;6.70;99.90;;;;;;6277422;28;20929;-62
2021/01/03 03:40:39;;;;;;;20.07;15.50;;;6.60;99.90;;;;;;6278110;28;20906;-62
2021/01/03 03:43:43;;;;;;;18.40;14.23;;;6.60;99.90;;;;;;6277730;28;20881;-60
2021/01/03 03:46:50;;;;;;;16.40;14.27;;;6.60;99.90;;;;;;6277706;28;20459;-60
2021/01/03 03:49:52;;;;;;;16.03;13.20;;;6.60;99.90;;;;;;6277629;28;20962;-58
2021/01/03 03:52:54;;;;;;;17.63;13.73;;;6.60;99.90;;;;;;6277344;28;20873;-61
2021/01/03 03:55:56;;;;;;;18.03;14.27;;;6.60;99.90;;;;;;6277839;28;20481;-62
2021/01/03 03:58:59;;;;;;;19.60;14.80;;;6.60;99.90;;;;;;6278093;28;20466;-64
2021/01/03 04:02:02;;;;;;;19.60;16.00;;;6.60;99.90;;;;;;6277372;28;20954;-62
2021/01/03 04:05:05;;;;;;;20.50;16.30;;;6.60;99.90;;;;;;6277771;28;20469;-61
2021/01/03 04:08:07;;;;;;;18.77;16.10;;;6.60;99.90;;;;;;6277043;28;20805;-62
2021/01/03 04:11:09;;;;;;;15.70;13.70;;;6.70;99.90;;;;;;6276986;28;21081;-63
2021/01/03 04:14:15;;;;;;;18.33;15.10;;;6.70;99.90;;;;;;6267612;28;20473;-62
2021/01/03 04:17:19;;;;;;;18.13;15.07;;;6.70;99.90;;;;;;6276094;28;20932;-62
2021/01/03 04:20:21;;;;;;;16.40;13.97;;;6.70;99.90;;;;;;6274648;28;20954;-62
2021/01/03 04:23:26;;;;;;;19.47;17.43;;;6.70;99.90;;;;;;6274586;28;20458;-62
2021/01/03 04:26:34;;;;;;;23.90;17.03;;;6.70;99.90;;;;;;6274670;28;20482;-62
2021/01/03 04:29:37;;;;;;;22.40;16.30;;;6.60;99.90;;;;;;6274919;28;20481;-62
2021/01/03 04:32:40;;;;;;;24.83;18.87;;;6.60;99.90;;;;;;6275283;28;20482;-62
2021/01/03 04:35:42;;;;;;;21.50;18.30;;;6.60;99.90;;;;;;6276509;28;20972;-62
2021/01/03 04:38:45;;;;;;;19.60;17.37;;;6.60;99.90;;;;;;6276858;28;20466;-63
2021/01/03 04:41:49;;;;;;;25.07;16.80;;;6.60;99.90;;;;;;6276395;28;20479;-62
2021/01/03 04:44:55;;;;;;;14.27;12.30;;;6.60;99.90;;;;;;6276379;28;20955;-62
2021/01/03 04:48:00;;;;;;;11.40;10.20;;;6.50;99.90;;;;;;6275499;28;20466;-63
2021/01/03 04:51:21;;;;;;;9.83;8.83;;;6.40;99.90;;;;;;6276432;28;20489;-63
2021/01/03 04:54:26;;;;;;;9.33;7.30;;;6.30;99.90;;;;;;6276378;28;21040;-62
2021/01/03 04:57:37;;;;;;;9.03;8.13;;;6.20;99.90;;;;;;6275923;28;20470;-63
2021/01/03 05:00:46;;;;;;;9.97;8.13;;;6.20;99.90;;;;;;6275919;28;20478;-63
2021/01/03 05:04:10;;;;;;;9.90;8.93;;;6.20;99.90;;;;;;6276439;28;20916;-63
2021/01/03 05:07:18;;;;;;;8.23;7.43;;;6.30;99.90;;;;;;6275692;28;20466;-63
2021/01/03 05:10:22;;;;;;;9.10;6.93;;;6.30;99.90;;;;;;6275740;28;20446;-61
2021/01/03 05:13:36;;;;;;;7.93;7.27;;;6.30;99.90;;;;;;6275591;28;20486;-63
2021/01/03 05:16:40;;;;;;;7.80;7.10;;;6.20;99.90;;;;;;6270940;28;20612;-62
2021/01/03 05:19:42;;;;;;;6.77;6.07;;;6.20;99.90;;;;;;6275696;28;20477;-63
2021/01/03 05:22:44;;;;;;;7.77;7.17;;;6.20;99.90;;;;;;6275404;28;20545;-63
2021/01/03 05:25:49;;;;;;;6.80;6.30;;;6.20;99.90;;;;;;6275420;28;20474;-61
2021/01/03 05:28:55;;;;;;;7.83;7.13;;;6.20;99.90;;;;;;6275659;28;20485;-61
2021/01/03 05:32:00;;;;;;;9.23;6.70;;;6.30;99.90;;;;;;6275555;28;20478;-62
2021/01/03 05:35:15;;;;;;;6.70;6.00;;;6.40;99.90;;;;;;6275707;28;20485;-62
2021/01/03 05:38:35;;;;;;;7.83;7.13;;;6.40;99.90;;;;;;6275458;28;20466;-63
2021/01/03 05:41:57;;;;;;;7.70;7.00;;;6.40;99.90;;;;;;6275007;28;20514;-63
2021/01/03 05:45:04;;;;;;;8.53;7.73;;;6.40;99.90;;;;;;6275406;28;20983;-63
2021/01/03 05:48:07;;;;;;;8.40;7.70;;;6.40;99.90;;;;;;6275294;28;20473;-62
2021/01/03 05:51:28;;;;;;;9.07;8.03;;;6.40;99.90;;;;;;6274633;28;20470;-62
2021/01/03 05:54:35;;;;;;;8.47;7.63;;;6.40;99.90;;;;;;6274902;28;20471;-62
2021/01/03 05:57:37;;;;;;;9.20;8.30;;;6.40;99.90;;;;;;6274869;28;20462;-62
2021/01/03 06:00:41;;;;;;;8.10;7.30;;;6.40;99.90;;;;;;6274589;28;20477;-62
2021/01/03 06:03:58;;;;;;;8.10;7.40;;;6.40;99.90;;;;;;6275215;28;20471;-62
2021/01/03 06:07:22;;;;;;;9.57;7.87;;;6.50;99.90;;;;;;6274987;28;21000;-62
2021/01/03 06:10:30;;;;;;;8.00;7.30;;;6.40;99.90;;;;;;6272981;28;20478;-61
2021/01/03 06:13:46;;;;;;;7.63;6.93;;;6.50;99.90;;;;;;6274544;28;20516;-62
2021/01/03 06:16:48;;;;;;;8.00;7.20;;;6.50;99.90;;;;;;6274607;28;20466;-62
2021/01/03 06:19:53;;;;;;;9.00;7.00;;;6.50;99.90;;;;;;6274720;28;20545;-62
2021/01/03 06:23:00;;;;;;;9.47;8.57;;;6.60;99.90;;;;;;6270507;28;20481;-62
2021/01/03 06:26:10;;;;;;;10.57;7.70;;;6.60;99.90;;;;;;6275042;28;20612;-62
2021/01/03 06:29:25;;;;;;;8.37;7.30;;;6.60;99.90;;;;;;6274339;28;20819;-62
2021/01/03 06:32:59;;;;;;;8.17;7.47;;;6.60;99.90;;;;;;6274409;28;20479;-63
2021/01/03 06:36:10;;;;;;;8.23;7.53;;;6.60;99.90;;;;;;6274321;28;20986;-63
2021/01/03 06:39:23;;;;;;;8.30;7.50;;;6.60;99.90;;;;;;6274398;28;20484;-62
2021/01/03 06:42:45;;;;;;;10.00;8.70;;;6.60;99.90;;;;;;6274173;28;20478;-62
2021/01/03 06:46:27;;;;;;;9.23;8.30;;;6.60;99.90;;;;;;6274431;28;20828;-62
2021/01/03 06:49:56;;;;;;;8.37;7.57;;;6.50;99.90;;;;;;6275508;28;20454;-62
2021/01/03 06:53:39;;;;;;;10.23;8.37;;;6.50;99.90;;;;;;6274059;28;20945;-62
2021/01/03 06:57:26;;;;;;;10.23;8.50;;;6.50;99.90;;;;;;6251618;28;20858;-62
2021/01/03 07:00:37;;;;;;;13.43;11.70;;;6.40;99.90;;;;;;6273276;28;21014;-62
2021/01/03 07:03:39;;;;;;;15.00;12.13;;;6.50;99.90;;;;;;6273511;28;20465;-62
2021/01/03 07:06:44;;;;;;;17.43;13.30;;;6.50;99.90;;;;;;6273362;28;20470;-62
2021/01/03 07:09:59;;;;;;;17.00;13.27;;;6.50;99.90;;;;;;6270921;28;20946;-62
2021/01/03 07:13:03;;;;;;;17.37;14.53;;;6.50;99.90;;;;;;6277904;28;21089;-61
2021/01/03 07:16:10;;;;;;;18.13;14.27;;;6.50;99.90;;;;;;6278533;28;20470;-62
2021/01/03 07:19:18;;;;;;;17.53;13.70;;;6.50;99.90;;;;;;6278121;28;20958;-62
2021/01/03 07:22:24;;;;;;;15.63;13.63;;;6.40;99.90;;;;;;6278304;28;20477;-62
2021/01/03 07:25:53;;;;;;;21.23;16.90;;;6.40;99.90;;;;;;6270071;28;20454;-62
2021/01/03 07:29:01;;;;;;;22.10;18.83;;;6.40;99.90;;;;;;6277879;28;20466;-62
2021/01/03 07:32:07;;;;;;;20.30;17.20;;;6.40;99.90;;;;;;6277974;28;20466;-63
2021/01/03 07:35:27;;;;;;;28.43;17.50;;;6.30;99.90;;;;;;6278328;28;20466;-63
2021/01/03 07:38:32;;;;;;;27.70;18.47;;;6.10;99.90;;;;;;6278747;28;20470;-63
2021/01/03 07:41:35;;;;;;;24.97;17.17;;;6.10;99.90;;;;;;6278044;28;20470;-63
2021/01/03 07:44:37;;;;;;;23.97;18.93;;;6.10;99.90;;;;;;6277861;28;20484;-63
2021/01/03 07:47:43;;;;;;;25.20;18.53;;;6.10;99.90;;;;;;6277801;28;20470;-63
2021/01/03 07:50:45;;;;;;;21.63;17.20;;;6.20;99.90;;;;;;6277774;28;20481;-63
2021/01/03 07:53:50;;;;;;;26.10;18.47;;;6.20;99.90;;;;;;6277525;28;20474;-63
2021/01/03 07:56:53;;;;;;;28.07;19.23;;;6.10;99.90;;;;;;6277669;28;20589;-63
2021/01/03 07:59:57;;;;;;;33.37;21.13;;;6.10;99.90;;;;;;6277369;28;20864;-63
2021/01/03 08:03:03;;;;;;;25.07;19.10;;;6.10;99.90;;;;;;6277282;28;20819;-63
2021/01/03 08:06:10;;;;;;;28.20;18.90;;;6.00;99.90;;;;;;6277645;28;20478;-63
2021/01/03 08:09:22;;;;;;;27.10;19.10;;;5.90;99.90;;;;;;6277211;28;20985;-63
2021/01/03 08:12:30;;;;;;;24.00;18.47;;;6.00;99.90;;;;;;6277008;28;20817;-62
2021/01/03 08:15:35;;;;;;;26.70;19.03;;;6.00;99.90;;;;;;6277047;28;20482;-62
2021/01/03 08:18:40;;;;;;;24.70;18.40;;;6.00;99.90;;;;;;6277081;28;20471;-62
2021/01/03 08:21:43;;;;;;;30.17;18.50;;;6.00;99.90;;;;;;6276761;28;20471;-63
2021/01/03 08:24:54;;;;;;;31.30;17.77;;;6.10;99.90;;;;;;6277397;28;20484;-62
2021/01/03 08:28:07;;;;;;;22.27;16.63;;;6.10;99.90;;;;;;6276962;28;20471;-62
2021/01/03 08:31:13;;;;;;;25.57;16.47;;;6.20;99.90;;;;;;6272071;28;20489;-62
2021/01/03 08:34:18;;;;;;;22.67;16.13;;;6.10;99.90;;;;;;6276622;28;20478;-62
2021/01/03 08:37:24;;;;;;;24.77;19.17;;;6.20;99.90;;;;;;6276356;28;20771;-61
2021/01/03 08:40:31;;;;;;;22.73;16.60;;;6.30;99.90;;;;;;6277574;28;20458;-62
2021/01/03 08:43:40;;;;;;;21.90;15.87;;;6.20;99.90;;;;;;6276276;28;20423;-62
2021/01/03 08:46:43;;;;;;;24.43;18.30;;;6.20;99.90;;;;;;6275968;28;20547;-63
2021/01/03 08:49:45;;;;;;;22.57;17.50;;;6.20;99.90;;;;;;6276131;28;20988;-62
2021/01/03 08:52:55;;;;;;;25.43;17.43;;;6.30;99.90;;;;;;6276595;28;20473;-62
2021/01/03 08:56:05;;;;;;;31.10;18.57;;;6.20;99.90;;;;;;6276074;28;20473;-63
2021/01/03 08:59:13;;;;;;;28.57;18.20;;;6.30;99.90;;;;;;6276204;28;20481;-62
2021/01/03 09:02:23;;;;;;;23.60;17.47;;;6.20;99.90;;;;;;6276186;28;20490;-62
2021/01/03 09:05:29;;;;;;;28.93;19.47;;;6.30;99.90;;;;;;6275928;28;20474;-63
2021/01/03 09:08:35;;;;;;;30.27;18.67;;;6.30;99.90;;;;;;6275761;28;20807;-62
2021/01/03 09:11:49;;;;;;;26.73;17.73;;;6.30;99.90;;;;;;6275957;28;20486;-62
2021/01/03 09:14:54;;;;;;;29.90;19.27;;;6.20;99.90;;;;;;6275354;28;20471;-62
2021/01/03 09:18:09;;;;;;;25.53;17.73;;;6.30;99.90;;;;;;6275780;28;20771;-62
2021/01/03 09:21:12;;;;;;;23.37;17.13;;;6.30;99.90;;;;;;6275224;28;20479;-62
2021/01/03 09:24:20;;;;;;;23.70;17.00;;;6.30;99.90;;;;;;6273285;28;20819;-63
2021/01/03 09:27:27;;;;;;;23.63;14.90;;;6.40;99.90;;;;;;6272985;28;20509;-62
2021/01/03 09:30:35;;;;;;;19.80;14.30;;;6.40;99.90;;;;;;6273075;28;20488;-62
2021/01/03 09:33:38;;;;;;;17.83;12.33;;;6.50;99.90;;;;;;6272467;28;20474;-62
2021/01/03 09:36:50;;;;;;;20.67;14.57;;;6.50;99.90;;;;;;6272051;28;20517;-62
2021/01/03 09:40:14;;;;;;;21.53;14.30;;;6.50;99.90;;;;;;6274127;28;20799;-62
2021/01/03 09:43:27;;;;;;;19.10;14.87;;;6.40;99.90;;;;;;6273671;28;20466;-62
2021/01/03 09:46:32;;;;;;;23.43;16.20;;;6.40;99.90;;;;;;6272896;28;20457;-62
2021/01/03 09:49:44;;;;;;;19.80;13.17;;;6.50;99.90;;;;;;6273543;28;20867;-63
2021/01/03 09:52:51;;;;;;;19.70;13.73;;;6.50;99.90;;;;;;6274170;28;20459;-63
2021/01/03 09:55:57;;;;;;;20.03;14.33;;;6.50;99.90;;;;;;6272930;28;20563;-61
2021/01/03 09:59:09;;;;;;;18.57;13.27;;;6.60;99.90;;;;;;6270966;28;20469;-62
2021/01/03 10:02:18;;;;;;;21.10;13.60;;;6.60;99.90;;;;;;6274709;28;20473;-62
2021/01/03 10:05:24;;;;;;;19.43;13.07;;;6.80;99.90;;;;;;6272665;28;20466;-62
2021/01/03 10:08:28;;;;;;;17.20;12.50;;;6.90;99.90;;;;;;6273499;28;20466;-62
2021/01/03 10:11:32;;;;;;;18.70;13.40;;;6.90;99.90;;;;;;6274247;28;20470;-61
2021/01/03 10:14:36;;;;;;;19.13;13.57;;;6.90;99.90;;;;;;6273851;28;20470;-62
2021/01/03 10:17:42;;;;;;;23.40;17.33;;;7.10;99.90;;;;;;6273758;28;20985;-62
2021/01/03 10:20:47;;;;;;;19.00;14.63;;;7.20;99.90;;;;;;6273587;28;20470;-64
2021/01/03 10:23:56;;;;;;;18.63;13.50;;;7.30;99.90;;;;;;6274593;28;20470;-61
2021/01/03 10:27:15;;;;;;;17.47;14.20;;;7.50;99.90;;;;;;6271983;28;20494;-60
2021/01/03 10:30:19;;;;;;;18.23;12.90;;;7.80;99.90;;;;;;6271527;28;20470;-61
2021/01/03 10:33:22;;;;;;;12.67;11.33;;;8.10;99.90;;;;;;6273727;28;20886;-61
2021/01/03 10:36:24;;;;;;;16.70;11.93;;;8.40;99.90;;;;;;6273683;28;20806;-61
2021/01/03 10:39:29;;;;;;;14.90;12.27;;;8.50;99.90;;;;;;6264186;28;20509;-61
2021/01/03 10:42:31;;;;;;;15.90;13.00;;;8.70;99.90;;;;;;6272298;28;20485;-61
2021/01/03 10:45:33;;;;;;;15.47;12.10;;;8.90;99.90;;;;;;6272475;28;20469;-61
2021/01/03 10:48:37;;;;;;;15.10;12.40;;;8.90;99.90;;;;;;6277293;28;20511;-60
2021/01/03 10:51:53;;;;;;;15.53;13.00;;;9.00;99.90;;;;;;6276056;28;20466;-61
2021/01/03 10:54:55;;;;;;;14.50;12.87;;;9.20;99.90;;;;;;6274438;28;20824;-61
2021/01/03 10:57:58;;;;;;;15.33;13.20;;;9.30;99.90;;;;;;6277092;28;20466;-61
2021/01/03 11:01:02;;;;;;;14.13;12.60;;;9.30;99.90;;;;;;6277228;28;20480;-61
2021/01/03 11:04:09;;;;;;;14.43;11.80;;;9.20;99.90;;;;;;6276741;28;20781;-61
2021/01/03 11:07:11;;;;;;;15.03;12.17;;;9.20;99.90;;;;;;6276730;28;20579;-61
2021/01/03 11:10:14;;;;;;;14.20;12.70;;;9.00;99.90;;;;;;6276855;28;21932;-61
2021/01/03 11:13:16;;;;;;;16.07;13.63;;;8.80;99.90;;;;;;6269485;28;20652;-64
2021/01/03 11:16:18;;;;;;;16.13;12.40;;;8.60;99.90;;;;;;6276460;28;20485;-64
2021/01/03 11:19:22;;;;;;;16.40;13.43;;;8.40;99.90;;;;;;6274320;28;21199;-67
2021/01/03 11:22:25;;;;;;;13.90;12.27;;;8.30;99.90;;;;;;6274196;28;20469;-62
2021/01/03 11:25:27;;;;;;;13.97;12.10;;;8.30;99.90;;;;;;6276909;28;20506;-64
2021/01/03 11:28:30;;;;;;;14.33;11.80;;;8.50;99.90;;;;;;6276282;28;20438;-62
2021/01/03 11:31:34;;;;;;;14.13;11.43;;;8.70;99.90;;;;;;6277506;28;20545;-64
2021/01/03 11:34:37;;;;;;;14.37;12.03;;;9.00;99.90;;;;;;6277869;28;20493;-62
2021/01/03 11:37:39;;;;;;;11.87;10.43;;;9.20;99.90;;;;;;6277894;28;20465;-66
2021/01/03 11:40:42;;;;;;;10.80;9.70;;;9.80;99.90;;;;;;6273737;28;20473;-66
2021/01/03 11:43:44;;;;;;;13.83;11.00;;;11.30;99.90;;;;;;6277498;28;20786;-64
2021/01/03 11:46:47;;;;;;;11.37;10.33;;;11.90;99.70;;;;;;6277649;28;20788;-64
2021/01/03 11:49:50;;;;;;;12.87;11.37;;;12.20;97.90;;;;;;6270602;28;20477;-63
2021/01/03 11:53:12;;;;;;;12.53;11.10;;;12.80;96.90;;;;;;6277951;28;20474;-62
2021/01/03 11:56:18;;;;;;;12.70;11.40;;;13.20;95.20;;;;;;6277169;28;20574;-61
2021/01/03 11:59:20;;;;;;;14.30;11.03;;;13.00;95.50;;;;;;6277241;28;20473;-64
2021/01/03 12:02:22;;;;;;;11.43;10.23;;;12.80;95.70;;;;;;6277455;28;20922;-64
2021/01/03 12:05:26;;;;;;;13.93;11.70;;;12.30;95.60;;;;;;6267372;28;20570;-62
2021/01/03 12:08:28;;;;;;;10.73;9.67;;;12.00;96.20;;;;;;6263108;28;20462;-64
2021/01/03 12:11:31;;;;;;;11.30;10.13;;;11.70;96.50;;;;;;6252154;28;20507;-63
2021/01/03 12:14:33;;;;;;;13.27;11.60;;;11.50;96.20;;;;;;6251687;28;20493;-62
2021/01/03 12:17:36;;;;;;;11.27;10.07;;;11.20;96.80;;;;;;6271513;28;20466;-61
2021/01/03 12:20:42;;;;;;;13.33;10.60;;;11.00;97.50;;;;;;6274924;28;20814;-61
2021/01/03 12:23:44;;;;;;;11.73;10.23;;;10.80;98.00;;;;;;6271880;28;20473;-61
2021/01/03 12:26:47;;;;;;;11.60;10.40;;;10.60;97.90;;;;;;6272666;28;20465;-61
2021/01/03 12:29:49;;;;;;;12.97;11.43;;;10.40;98.60;;;;;;6274799;28;20463;-61
2021/01/03 12:32:52;;;;;;;14.13;11.87;;;10.20;98.90;;;;;;6274970;28;20470;-61
2021/01/03 12:35:55;;;;;;;13.80;12.23;;;9.90;99.90;;;;;;6274498;28;20805;-61
2021/01/03 12:38:57;;;;;;;13.47;12.17;;;9.60;99.90;;;;;;6274109;28;20470;-61
2021/01/03 12:42:00;;;;;;;13.60;12.20;;;9.30;99.90;;;;;;6274022;28;20474;-61
2021/01/03 12:45:03;;;;;;;15.10;12.57;;;9.00;99.90;;;;;;6271908;28;20478;-61
2021/01/03 12:48:06;;;;;;;13.87;12.30;;;8.90;99.90;;;;;;6276053;28;20794;-60
2021/01/03 12:51:09;;;;;;;17.87;14.63;;;8.80;99.90;;;;;;6275843;28;20478;-60
2021/01/03 12:54:13;;;;;;;16.37;14.20;;;8.70;99.90;;;;;;6275965;28;20573;-61
2021/01/03 12:57:15;;;;;;;15.30;13.00;;;8.60;99.90;;;;;;6275646;28;20470;-60
2021/01/03 13:00:18;;;;;;;16.37;12.53;;;8.60;99.90;;;;;;6276048;28;20588;-61
2021/01/03 13:03:21;;;;;;;15.87;14.10;;;8.60;99.90;;;;;;6275516;28;20477;-61
2021/01/03 13:06:24;;;;;;;15.53;12.77;;;8.60;99.90;;;;;;6263262;28;20485;-61
2021/01/03 13:09:27;;;;;;;21.20;15.83;;;8.40;99.90;;;;;;6257129;28;20467;-61
2021/01/03 13:12:29;;;;;;;14.33;12.70;;;8.30;99.90;;;;;;6275415;28;20561;-61
2021/01/03 13:15:31;;;;;;;16.23;13.10;;;8.10;99.90;;;;;;6271367;28;20493;-61
2021/01/03 13:18:37;;;;;;;13.90;12.50;;;8.00;99.90;;;;;;6275577;28;20462;-61
2021/01/03 13:21:40;;;;;;;16.77;13.57;;;7.90;99.90;;;;;;6270462;28;20467;-61
2021/01/03 13:24:42;;;;;;;21.13;15.33;;;7.80;99.90;;;;;;6275484;28;20466;-61
2021/01/03 13:27:44;;;;;;;16.87;13.80;;;7.80;99.90;;;;;;6275043;28;20466;-61
2021/01/03 13:30:47;;;;;;;18.60;14.57;;;7.80;99.90;;;;;;6275162;28;20823;-61
2021/01/03 13:33:50;;;;;;;17.17;14.03;;;7.60;99.90;;;;;;6275048;28;20541;-62
2021/01/03 13:36:53;;;;;;;17.53;15.03;;;7.60;99.90;;;;;;6275006;28;20470;-62
2021/01/03 13:39:55;;;;;;;15.40;13.70;;;7.60;99.90;;;;;;6272040;28;20481;-63
2021/01/03 13:43:00;;;;;;;23.40;15.47;;;7.70;99.90;;;;;;6274563;28;20474;-62
2021/01/03 13:46:03;;;;;;;17.10;14.47;;;7.70;99.90;;;;;;6250460;28;20550;-61
2021/01/03 13:49:05;;;;;;;17.77;14.97;;;7.70;99.90;;;;;;6246065;28;20471;-62
2021/01/03 13:52:08;;;;;;;20.00;15.33;;;7.70;99.90;;;;;;6245779;28;20598;-63
2021/01/03 13:55:13;;;;;;;20.30;15.93;;;7.60;99.90;;;;;;6245273;28;20816;-62
2021/01/03 13:58:15;;;;;;;16.33;14.23;;;7.60;99.90;;;;;;6245938;28;20482;-63
2021/01/03 14:01:17;;;;;;;19.33;13.97;;;7.60;99.90;;;;;;6245981;28;20843;-62
2021/01/03 14:04:20;;;;;;;20.63;15.13;;;7.60;99.90;;;;;;6247162;28;20462;-60
2021/01/03 14:07:25;;;;;;;15.80;14.20;;;7.60;99.90;;;;;;6264649;28;20454;-62
2021/01/03 14:10:28;;;;;;;20.50;15.43;;;7.60;99.90;;;;;;6273951;28;20815;-62
2021/01/03 14:13:30;;;;;;;16.80;15.03;;;7.50;99.90;;;;;;6274062;28;20504;-62
2021/01/03 14:16:32;;;;;;;14.60;12.97;;;7.50;99.90;;;;;;6274720;28;20492;-61
2021/01/03 14:19:35;;;;;;;16.73;14.17;;;7.40;99.90;;;;;;6276396;28;20454;-61
2021/01/03 14:22:39;;;;;;;17.97;14.57;;;7.40;99.90;;;;;;6267907;28;20459;-61
2021/01/03 14:25:42;;;;;;;18.33;15.37;;;7.20;99.90;;;;;;6257956;28;21049;-63
2021/01/03 14:28:44;;;;;;;19.60;15.83;;;7.10;99.90;;;;;;6258124;28;20474;-61
2021/01/03 14:31:51;;;;;;;20.30;15.40;;;7.10;99.90;;;;;;6257412;28;20911;-61
2021/01/03 14:34:54;;;;;;;20.97;16.00;;;7.00;99.90;;;;;;6257598;28;20466;-61
2021/01/03 14:38:00;;;;;;;19.47;16.97;;;7.00;99.90;;;;;;6257751;28;20470;-61
2021/01/03 14:41:03;;;;;;;23.07;16.57;;;7.00;99.90;;;;;;6257924;28;20565;-62
2021/01/03 14:44:06;;;;;;;18.70;16.33;;;6.90;99.90;;;;;;6257770;28;20779;-61
2021/01/03 14:47:17;;;;;;;19.40;15.47;;;6.80;99.90;;;;;;6257580;28;20809;-62
2021/01/03 14:50:37;;;;;;;21.40;16.53;;;6.80;99.90;;;;;;6248531;28;20479;-62
2021/01/03 14:53:51;;;;;;;18.33;16.40;;;6.60;99.90;;;;;;6257606;28;20556;-62
2021/01/03 14:56:59;;;;;;;24.13;17.17;;;6.40;99.90;;;;;;6257483;28;20546;-62
2021/01/03 15:00:06;;;;;;;27.50;17.90;;;6.40;99.90;;;;;;6257238;28;20471;-62
2021/01/03 15:03:18;;;;;;;22.73;17.20;;;6.40;99.90;;;;;;6257636;28;20471;-62
2021/01/03 15:06:41;;;;;;;20.10;16.50;;;6.30;99.90;;;;;;6265303;28;20962;-62
2021/01/03 15:09:47;;;;;;;25.80;17.43;;;6.30;99.90;;;;;;6282548;28;20480;-62
2021/01/03 15:12:49;;;;;;;23.40;16.00;;;6.10;99.90;;;;;;6282303;28;20481;-62
2021/01/03 15:15:55;;;;;;;25.90;17.17;;;6.10;99.90;;;;;;6281730;28;21039;-62
2021/01/03 15:19:04;;;;;;;24.20;18.13;;;6.10;99.90;;;;;;6282122;28;20466;-62
2021/01/03 15:22:09;;;;;;;20.60;16.90;;;6.10;99.90;;;;;;6272657;28;20493;-63
2021/01/03 15:25:20;;;;;;;26.77;19.60;;;6.00;99.90;;;;;;6257154;28;20550;-62
2021/01/03 15:28:28;;;;;;;24.60;17.37;;;6.00;99.90;;;;;;6257161;28;20888;-62
2021/01/03 15:31:35;;;;;;;23.63;18.13;;;6.00;99.90;;;;;;6254157;28;20793;-64
2021/01/03 15:34:44;;;;;;;38.73;26.77;;;5.90;99.90;;;;;;6260690;28;20542;-63
2021/01/03 15:37:51;;;;;;;38.30;29.67;;;6.00;99.90;;;;;;6274533;28;20473;-65
2021/01/03 15:41:00;;;;;;;28.30;21.80;;;6.00;99.90;;;;;;6276350;28;20480;-64
2021/01/03 15:44:07;;;;;;;30.23;26.93;;;5.90;99.90;;;;;;6277458;28;20470;-62
2021/01/03 15:47:22;;;;;;;25.63;20.80;;;5.90;99.90;;;;;;6277456;28;20536;-64
2021/01/03 15:50:25;;;;;;;28.60;20.70;;;5.90;99.90;;;;;;6266601;28;20487;-62
2021/01/03 15:53:32;;;;;;;26.80;19.90;;;5.90;99.90;;;;;;6252529;28;20820;-63
2021/01/03 15:56:39;;;;;;;32.00;21.20;;;5.80;99.90;;;;;;6253035;28;20463;-62
2021/01/03 15:59:41;;;;;;;25.87;19.10;;;5.90;99.90;;;;;;6252238;28;20487;-61